sensor_id;sensor_type;location;lat;lon;timestamp;pressure;altitude;pressure_sealevel;temperature;humidity
55468;BME280;41332;42.702;23.200;2023-07-13T00:01:18;94252.75;;;20.91;59.55
55468;BME280;41332;42.702;23.200;2023-07-13T00:03:44;94249.31;;;20.91;59.83
55468;BME280;41332;42.702;23.200;2023-07-13T00:06:10;94247.00;;;20.86;60.05
55468;BME280;41332;42.702;23.200;2023-07-13T00:08:35;94247.78;;;20.90;59.71
55468;BME280;41332;42.702;23.200;2023-07-13T00:11:01;94246.25;;;20.85;60.02
55468;BME280;41332;42.702;23.200;2023-07-13T00:13:28;94237.88;;;20.83;60.38
55468;BME280;41332;42.702;23.200;2023-07-13T00:15:54;94230.25;;;20.82;60.36
55468;BME280;41332;42.702;23.200;2023-07-13T00:18:21;94233.31;;;20.80;59.95
55468;BME280;41332;42.702;23.200;2023-07-13T00:20:46;94231.38;;;20.77;59.68
55468;BME280;41332;42.702;23.200;2023-07-13T00:23:12;94230.63;;;20.77;60.24
55468;BME280;41332;42.702;23.200;2023-07-13T00:25:37;94231.38;;;20.70;60.25
55468;BME280;41332;42.702;23.200;2023-07-13T00:28:03;94230.97;;;20.68;60.51
55468;BME280;41332;42.702;23.200;2023-07-13T00:30:28;94227.16;;;20.65;61.07
55468;BME280;41332;42.702;23.200;2023-07-13T00:32:54;94223.34;;;20.63;60.97
55468;BME280;41332;42.702;23.200;2023-07-13T00:35:19;94223.75;;;20.65;61.27
55468;BME280;41332;42.702;23.200;2023-07-13T00:37:45;94222.97;;;20.57;61.46
55468;BME280;41332;42.702;23.200;2023-07-13T00:40:12;94224.13;;;20.59;62.26
55468;BME280;41332;42.702;23.200;2023-07-13T00:42:39;94222.19;;;20.49;61.69
55468;BME280;41332;42.702;23.200;2023-07-13T00:47:54;94223.34;;;20.41;62.14
55468;BME280;41332;42.702;23.200;2023-07-13T00:50:20;94222.94;;;20.35;63.29
55468;BME280;41332;42.702;23.200;2023-07-13T00:52:48;94221.44;;;20.38;62.44
55468;BME280;41332;42.702;23.200;2023-07-13T00:55:15;94229.03;;;20.25;63.28
55468;BME280;41332;42.702;23.200;2023-07-13T00:57:43;94229.78;;;20.29;63.15
55468;BME280;41332;42.702;23.200;2023-07-13T01:00:09;94221.41;;;20.27;63.32
55468;BME280;41332;42.702;23.200;2023-07-13T01:02:38;94216.84;;;20.20;63.66
55468;BME280;41332;42.702;23.200;2023-07-13T01:05:11;94224.81;;;20.17;64.72
55468;BME280;41332;42.702;23.200;2023-07-13T01:07:39;94222.53;;;20.15;64.13
55468;BME280;41332;42.702;23.200;2023-07-13T01:10:06;94217.94;;;20.12;64.31
55468;BME280;41332;42.702;23.200;2023-07-13T01:12:32;94224.41;;;20.04;64.75
55468;BME280;41332;42.702;23.200;2023-07-13T01:15:01;94224.03;;;20.05;65.50
55468;BME280;41332;42.702;23.200;2023-07-13T01:17:28;94219.03;;;19.93;65.34
55468;BME280;41332;42.702;23.200;2023-07-13T01:19:54;94222.09;;;19.91;66.65
55468;BME280;41332;42.702;23.200;2023-07-13T01:22:19;94220.94;;;19.89;66.83
55468;BME280;41332;42.702;23.200;2023-07-13T01:24:51;94220.56;;;19.94;65.93
55468;BME280;41332;42.702;23.200;2023-07-13T01:27:20;94211.06;;;19.89;66.53
55468;BME280;41332;42.702;23.200;2023-07-13T01:29:46;94204.50;;;19.80;66.93
55468;BME280;41332;42.702;23.200;2023-07-13T01:32:20;94205.72;;;19.89;66.28
55468;BME280;41332;42.702;23.200;2023-07-13T01:34:49;94214.44;;;19.83;66.54
55468;BME280;41332;42.702;23.200;2023-07-13T01:37:14;94218.63;;;19.84;66.59
55468;BME280;41332;42.702;23.200;2023-07-13T01:39:40;94210.59;;;19.76;66.33
55468;BME280;41332;42.702;23.200;2023-07-13T01:42:06;94215.16;;;19.76;67.45
55468;BME280;41332;42.702;23.200;2023-07-13T01:44:31;94203.34;;;19.73;67.36
55468;BME280;41332;42.702;23.200;2023-07-13T01:46:57;94208.28;;;19.68;67.75
55468;BME280;41332;42.702;23.200;2023-07-13T01:49:22;94204.84;;;19.71;66.91
55468;BME280;41332;42.702;23.200;2023-07-13T01:51:47;94201.44;;;19.70;66.92
55468;BME280;41332;42.702;23.200;2023-07-13T01:54:13;94205.25;;;19.69;67.13
55468;BME280;41332;42.702;23.200;2023-07-13T01:56:38;94191.91;;;19.66;68.58
55468;BME280;41332;42.702;23.200;2023-07-13T01:59:04;94202.91;;;19.60;68.14
55468;BME280;41332;42.702;23.200;2023-07-13T02:01:30;94203.34;;;19.66;69.21
55468;BME280;41332;42.702;23.200;2023-07-13T02:03:55;94204.44;;;19.54;69.56
55468;BME280;41332;42.702;23.200;2023-07-13T02:06:21;94209.38;;;19.56;69.50
55468;BME280;41332;42.702;23.200;2023-07-13T02:08:46;94208.59;;;19.55;69.91
55468;BME280;41332;42.702;23.200;2023-07-13T02:11:12;94210.88;;;19.50;70.55
55468;BME280;41332;42.702;23.200;2023-07-13T02:13:38;94208.97;;;19.54;70.16
55468;BME280;41332;42.702;23.200;2023-07-13T02:16:03;94205.56;;;19.53;70.67
55468;BME280;41332;42.702;23.200;2023-07-13T02:18:29;94212.78;;;19.49;70.95
55468;BME280;41332;42.702;23.200;2023-07-13T02:20:54;94218.00;;;18.72;75.54
55468;BME280;41332;42.702;23.200;2023-07-13T02:23:19;94221.47;;;18.80;75.25
55468;BME280;41332;42.702;23.200;2023-07-13T02:25:45;94221.97;;;18.92;73.90
55468;BME280;41332;42.702;23.200;2023-07-13T02:28:11;94219.34;;;19.00;73.29
55468;BME280;41332;42.702;23.200;2023-07-13T02:30:36;94217.50;;;19.04;73.66
55468;BME280;41332;42.702;23.200;2023-07-13T02:33:03;94219.03;;;19.08;73.16
55468;BME280;41332;42.702;23.200;2023-07-13T02:35:29;94226.66;;;19.14;73.30
55468;BME280;41332;42.702;23.200;2023-07-13T02:37:54;94224.78;;;19.14;72.89
55468;BME280;41332;42.702;23.200;2023-07-13T02:40:19;94219.06;;;19.16;72.38
55468;BME280;41332;42.702;23.200;2023-07-13T02:42:45;94232.75;;;19.18;73.01
55468;BME280;41332;42.702;23.200;2023-07-13T02:45:10;94225.94;;;19.20;73.13
55468;BME280;41332;42.702;23.200;2023-07-13T02:47:39;94223.28;;;19.20;73.03
55468;BME280;41332;42.702;23.200;2023-07-13T02:50:05;94233.88;;;19.17;72.91
55468;BME280;41332;42.702;23.200;2023-07-13T02:52:30;94226.66;;;19.14;72.92
55468;BME280;41332;42.702;23.200;2023-07-13T02:54:56;94224.00;;;19.14;73.56
55468;BME280;41332;42.702;23.200;2023-07-13T02:57:21;94227.44;;;19.14;73.32
55468;BME280;41332;42.702;23.200;2023-07-13T02:59:47;94228.53;;;19.09;73.46
55468;BME280;41332;42.702;23.200;2023-07-13T03:02:12;94232.75;;;19.14;73.69
55468;BME280;41332;42.702;23.200;2023-07-13T03:04:38;94232.75;;;19.14;73.42
55468;BME280;41332;42.702;23.200;2023-07-13T03:07:04;94239.94;;;19.10;73.38
55468;BME280;41332;42.702;23.200;2023-07-13T03:09:32;94233.09;;;19.09;73.26
55468;BME280;41332;42.702;23.200;2023-07-13T03:12:01;94239.56;;;19.08;72.66
55468;BME280;41332;42.702;23.200;2023-07-13T03:14:26;94241.78;;;19.02;73.99
55468;BME280;41332;42.702;23.200;2023-07-13T03:16:52;94229.56;;;18.94;74.43
55468;BME280;41332;42.702;23.200;2023-07-13T03:19:18;94235.69;;;18.98;73.63
55468;BME280;41332;42.702;23.200;2023-07-13T03:21:44;94229.56;;;18.94;74.21
55468;BME280;41332;42.702;23.200;2023-07-13T03:24:09;94225.78;;;18.95;73.61
55468;BME280;41332;42.702;23.200;2023-07-13T03:26:35;94231.72;;;18.81;75.70
55468;BME280;41332;42.702;23.200;2023-07-13T03:29:00;94236.34;;;18.88;75.29
55468;BME280;41332;42.702;23.200;2023-07-13T03:31:28;94234.47;;;18.88;75.04
55468;BME280;41332;42.702;23.200;2023-07-13T03:33:55;94242.50;;;18.96;74.04
55468;BME280;41332;42.702;23.200;2023-07-13T03:36:27;94246.97;;;18.88;75.07
55468;BME280;41332;42.702;23.200;2023-07-13T03:38:58;94242.84;;;18.90;74.94
55468;BME280;41332;42.702;23.200;2023-07-13T03:41:24;94245.19;;;18.99;74.32
55468;BME280;41332;42.702;23.200;2023-07-13T03:43:50;94250.16;;;19.01;74.72
55468;BME280;41332;42.702;23.200;2023-07-13T03:46:17;94240.66;;;19.03;74.87
55468;BME280;41332;42.702;23.200;2023-07-13T03:48:44;94247.19;;;19.13;74.00
55468;BME280;41332;42.702;23.200;2023-07-13T03:51:11;94241.13;;;19.16;73.94
55468;BME280;41332;42.702;23.200;2023-07-13T03:53:40;94243.03;;;19.19;74.70
55468;BME280;41332;42.702;23.200;2023-07-13T03:56:06;94247.25;;;19.24;74.26
55468;BME280;41332;42.702;23.200;2023-07-13T03:58:38;94239.66;;;19.30;74.46
55468;BME280;41332;42.702;23.200;2023-07-13T04:01:05;94237.44;;;19.35;74.88
55468;BME280;41332;42.702;23.200;2023-07-13T04:03:32;94243.56;;;19.43;74.80
55468;BME280;41332;42.702;23.200;2023-07-13T04:05:59;94233.72;;;19.51;74.09
55468;BME280;41332;42.702;23.200;2023-07-13T04:08:36;94242.88;;;19.60;74.00
55468;BME280;41332;42.702;23.200;2023-07-13T04:11:03;94236.06;;;19.70;74.64
55468;BME280;41332;42.702;23.200;2023-07-13T04:13:28;94235.75;;;19.83;74.61
55468;BME280;41332;42.702;23.200;2023-07-13T04:15:54;94236.94;;;19.89;74.22
55468;BME280;41332;42.702;23.200;2023-07-13T04:18:20;94244.59;;;20.01;74.49
55468;BME280;41332;42.702;23.200;2023-07-13T04:20:46;94243.88;;;20.15;74.62
55468;BME280;41332;42.702;23.200;2023-07-13T04:23:12;94242.34;;;20.21;74.43
55468;BME280;41332;42.702;23.200;2023-07-13T04:25:37;94254.19;;;20.35;74.36
55468;BME280;41332;42.702;23.200;2023-07-13T04:28:04;94259.94;;;20.44;74.56
55468;BME280;41332;42.702;23.200;2023-07-13T04:30:30;94250.03;;;20.55;74.56
55468;BME280;41332;42.702;23.200;2023-07-13T04:32:55;94253.09;;;20.72;74.39
55468;BME280;41332;42.702;23.200;2023-07-13T04:35:21;94263.81;;;20.83;74.81
55468;BME280;41332;42.702;23.200;2023-07-13T04:37:49;94252.38;;;20.93;73.60
55468;BME280;41332;42.702;23.200;2023-07-13T04:40:17;94248.94;;;21.07;72.53
55468;BME280;41332;42.702;23.200;2023-07-13T04:42:44;94264.16;;;21.17;72.31
55468;BME280;41332;42.702;23.200;2023-07-13T04:45:10;94265.28;;;21.31;72.09
55468;BME280;41332;42.702;23.200;2023-07-13T04:47:35;94258.78;;;21.39;71.60
55468;BME280;41332;42.702;23.200;2023-07-13T04:50:01;94267.53;;;21.50;70.55
55468;BME280;41332;42.702;23.200;2023-07-13T04:52:27;94274.78;;;21.61;71.22
55468;BME280;41332;42.702;23.200;2023-07-13T04:54:52;94274.00;;;21.64;69.59
55468;BME280;41332;42.702;23.200;2023-07-13T04:57:17;94273.59;;;21.72;70.15
55468;BME280;41332;42.702;23.200;2023-07-13T04:59:43;94278.94;;;21.76;69.51
55468;BME280;41332;42.702;23.200;2023-07-13T05:02:08;94285.78;;;21.84;69.30
55468;BME280;41332;42.702;23.200;2023-07-13T05:04:34;94274.28;;;21.95;69.01
55468;BME280;41332;42.702;23.200;2023-07-13T05:06:59;94268.13;;;22.01;67.99
55468;BME280;41332;42.702;23.200;2023-07-13T05:09:25;94276.53;;;22.07;68.46
55468;BME280;41332;42.702;23.200;2023-07-13T05:11:50;94273.22;;;21.78;68.53
55468;BME280;41332;42.702;23.200;2023-07-13T05:14:16;94285.31;;;22.04;68.01
55468;BME280;41332;42.702;23.200;2023-07-13T05:16:42;94278.00;;;22.19;67.94
55468;BME280;41332;42.702;23.200;2023-07-13T05:19:08;94276.41;;;22.36;69.22
55468;BME280;41332;42.702;23.200;2023-07-13T05:21:34;94281.00;;;22.39;67.98
55468;BME280;41332;42.702;23.200;2023-07-13T05:23:59;94280.13;;;22.53;68.39
55468;BME280;41332;42.702;23.200;2023-07-13T05:26:25;94279.66;;;22.69;68.96
55468;BME280;41332;42.702;23.200;2023-07-13T05:28:50;94286.44;;;22.84;67.57
55468;BME280;41332;42.702;23.200;2023-07-13T05:31:15;94273.34;;;22.97;66.65
55468;BME280;41332;42.702;23.200;2023-07-13T05:33:41;94281.75;;;22.96;67.48
55468;BME280;41332;42.702;23.200;2023-07-13T05:36:06;94283.25;;;23.00;66.60
55468;BME280;41332;42.702;23.200;2023-07-13T05:38:32;94287.00;;;23.10;65.43
55468;BME280;41332;42.702;23.200;2023-07-13T05:40:58;94288.81;;;23.20;61.58
55468;BME280;41332;42.702;23.200;2023-07-13T05:43:23;94282.69;;;23.24;59.62
55468;BME280;41332;42.702;23.200;2023-07-13T05:45:52;94299.47;;;23.31;61.08
55468;BME280;41332;42.702;23.200;2023-07-13T05:48:17;94295.56;;;23.40;61.65
55468;BME280;41332;42.702;23.200;2023-07-13T05:50:43;94293.53;;;23.51;61.83
55468;BME280;41332;42.702;23.200;2023-07-13T05:53:08;94281.97;;;23.19;61.34
55468;BME280;41332;42.702;23.200;2023-07-13T05:55:33;94278.78;;;23.32;62.00
55468;BME280;41332;42.702;23.200;2023-07-13T05:58:00;94278.13;;;23.59;62.13
55468;BME280;41332;42.702;23.200;2023-07-13T06:00:26;94278.06;;;23.66;60.31
55468;BME280;41332;42.702;23.200;2023-07-13T06:02:52;94277.84;;;23.84;61.21
55468;BME280;41332;42.702;23.200;2023-07-13T06:07:43;94287.22;;;24.07;60.06
55468;BME280;41332;42.702;23.200;2023-07-13T06:10:08;94297.47;;;24.15;59.67
55468;BME280;41332;42.702;23.200;2023-07-13T06:12:34;94297.00;;;24.21;57.80
55468;BME280;41332;42.702;23.200;2023-07-13T06:14:59;94296.91;;;24.28;58.68
55468;BME280;41332;42.702;23.200;2023-07-13T06:17:25;94288.81;;;24.31;57.65
55468;BME280;41332;42.702;23.200;2023-07-13T06:19:50;94295.09;;;24.48;57.86
55468;BME280;41332;42.702;23.200;2023-07-13T06:22:16;94301.53;;;24.55;58.32
55468;BME280;41332;42.702;23.200;2023-07-13T06:24:41;94306.44;;;24.63;59.61
55468;BME280;41332;42.702;23.200;2023-07-13T06:27:06;94303.13;;;24.79;59.89
55468;BME280;41332;42.702;23.200;2023-07-13T06:29:35;94297.75;;;24.79;57.86
55468;BME280;41332;42.702;23.200;2023-07-13T06:32:01;94302.53;;;24.95;57.66
55468;BME280;41332;42.702;23.200;2023-07-13T06:34:27;94288.31;;;24.95;58.11
55468;BME280;41332;42.702;23.200;2023-07-13T06:36:52;94292.47;;;25.23;59.63
55468;BME280;41332;42.702;23.200;2023-07-13T06:39:18;94289.78;;;25.47;59.87
55468;BME280;41332;42.702;23.200;2023-07-13T06:41:43;94289.78;;;25.47;57.43
55468;BME280;41332;42.702;23.200;2023-07-13T06:44:09;94294.16;;;25.61;57.01
55468;BME280;41332;42.702;23.200;2023-07-13T06:46:34;94299.25;;;25.75;57.10
55468;BME280;41332;42.702;23.200;2023-07-13T06:48:59;94293.59;;;25.90;55.09
55468;BME280;41332;42.702;23.200;2023-07-13T06:51:25;94284.38;;;25.91;55.37
55468;BME280;41332;42.702;23.200;2023-07-13T06:53:51;94294.38;;;26.10;55.93
55468;BME280;41332;42.702;23.200;2023-07-13T06:56:16;94290.41;;;26.19;55.07
55468;BME280;41332;42.702;23.200;2023-07-13T06:58:42;94293.22;;;26.31;54.79
55468;BME280;41332;42.702;23.200;2023-07-13T07:01:08;94294.88;;;26.05;54.08
55468;BME280;41332;42.702;23.200;2023-07-13T07:03:37;94302.22;;;26.41;54.59
55468;BME280;41332;42.702;23.200;2023-07-13T07:08:38;94288.16;;;26.70;52.70
55468;BME280;41332;42.702;23.200;2023-07-13T07:11:03;94291.13;;;26.76;54.95
55468;BME280;41332;42.702;23.200;2023-07-13T07:13:29;94286.56;;;26.89;52.41
55468;BME280;41332;42.702;23.200;2023-07-13T07:15:55;94291.81;;;26.96;52.48
55468;BME280;41332;42.702;23.200;2023-07-13T07:18:21;94290.28;;;27.12;53.02
55468;BME280;41332;42.702;23.200;2023-07-13T07:20:46;94284.28;;;27.21;53.11
55468;BME280;41332;42.702;23.200;2023-07-13T07:23:11;94279.28;;;27.36;53.03
55468;BME280;41332;42.702;23.200;2023-07-13T07:25:37;94286.00;;;27.60;54.84
55468;BME280;41332;42.702;23.200;2023-07-13T07:28:07;94277.59;;;27.58;54.42
55468;BME280;41332;42.702;23.200;2023-07-13T07:30:33;94282.97;;;27.88;52.14
55468;BME280;41332;42.702;23.200;2023-07-13T07:32:58;94279.28;;;28.11;50.64
55468;BME280;41332;42.702;23.200;2023-07-13T07:35:23;94271.97;;;28.37;52.33
55468;BME280;41332;42.702;23.200;2023-07-13T07:37:49;94275.88;;;28.49;50.20
55468;BME280;41332;42.702;23.200;2023-07-13T07:40:14;94268.63;;;28.46;50.01
55468;BME280;41332;42.702;23.200;2023-07-13T07:42:40;94267.16;;;28.71;51.43
55468;BME280;41332;42.702;23.200;2023-07-13T07:45:06;94267.66;;;28.91;52.20
55468;BME280;41332;42.702;23.200;2023-07-13T07:47:31;94264.47;;;29.19;52.34
55468;BME280;41332;42.702;23.200;2023-07-13T07:49:57;94269.84;;;29.45;49.43
55468;BME280;41332;42.702;23.200;2023-07-13T07:52:22;94261.28;;;29.46;47.57
55468;BME280;41332;42.702;23.200;2023-07-13T07:54:48;94260.38;;;29.49;49.05
55468;BME280;41332;42.702;23.200;2023-07-13T07:57:13;94252.09;;;29.66;49.42
55468;BME280;41332;42.702;23.200;2023-07-13T07:59:38;94256.19;;;29.70;47.78
55468;BME280;41332;42.702;23.200;2023-07-13T08:02:04;94246.50;;;29.82;49.53
55468;BME280;41332;42.702;23.200;2023-07-13T08:04:30;94249.22;;;29.82;47.66
55468;BME280;41332;42.702;23.200;2023-07-13T08:06:55;94242.25;;;29.94;47.93
55468;BME280;41332;42.702;23.200;2023-07-13T08:09:23;94242.41;;;30.00;48.72
55468;BME280;41332;42.702;23.200;2023-07-13T08:11:49;94231.53;;;30.22;47.90
55468;BME280;41332;42.702;23.200;2023-07-13T08:14:14;94236.56;;;30.33;46.60
55468;BME280;41332;42.702;23.200;2023-07-13T08:16:40;94234.47;;;30.37;47.96
55468;BME280;41332;42.702;23.200;2023-07-13T08:19:06;94235.59;;;30.17;46.74
55468;BME280;41332;42.702;23.200;2023-07-13T08:21:31;94233.25;;;30.06;47.76
55468;BME280;41332;42.702;23.200;2023-07-13T08:23:57;94237.81;;;30.09;48.86
55468;BME280;41332;42.702;23.200;2023-07-13T08:26:22;94239.03;;;30.18;48.15
55468;BME280;41332;42.702;23.200;2023-07-13T08:28:48;94231.28;;;30.29;48.14
55468;BME280;41332;42.702;23.200;2023-07-13T08:31:13;94235.75;;;30.54;48.30
55468;BME280;41332;42.702;23.200;2023-07-13T08:33:40;94225.38;;;30.53;49.48
55468;BME280;41332;42.702;23.200;2023-07-13T08:36:06;94217.31;;;30.81;47.24
55468;BME280;41332;42.702;23.200;2023-07-13T08:38:32;94215.50;;;30.78;46.86
55468;BME280;41332;42.702;23.200;2023-07-13T08:40:57;94214.63;;;30.99;47.88
55468;BME280;41332;42.702;23.200;2023-07-13T08:43:26;94220.13;;;31.27;44.73
55468;BME280;41332;42.702;23.200;2023-07-13T08:46:05;94228.41;;;31.42;45.86
55468;BME280;41332;42.702;23.200;2023-07-13T08:48:50;94227.38;;;31.67;44.98
55468;BME280;41332;42.702;23.200;2023-07-13T08:51:29;94236.97;;;31.59;42.60
55468;BME280;41332;42.702;23.200;2023-07-13T08:54:01;94228.84;;;31.87;44.00
55468;BME280;41332;42.702;23.200;2023-07-13T08:56:29;94235.41;;;32.14;39.10
55468;BME280;41332;42.702;23.200;2023-07-13T08:59:06;94242.78;;;32.22;38.81
55468;BME280;41332;42.702;23.200;2023-07-13T09:05:28;94259.47;;;32.49;39.66
55468;BME280;41332;42.702;23.200;2023-07-13T09:13:47;94251.34;;;33.07;36.24
55468;BME280;41332;42.702;23.200;2023-07-13T09:16:14;94258.13;;;33.11;36.49
55468;BME280;41332;42.702;23.200;2023-07-13T09:18:47;94260.72;;;33.30;33.76
55468;BME280;41332;42.702;23.200;2023-07-13T09:21:27;94256.91;;;33.36;36.92
55468;BME280;41332;42.702;23.200;2023-07-13T09:23:58;94270.56;;;33.51;36.14
55468;BME280;41332;42.702;23.200;2023-07-13T09:26:28;94265.69;;;33.56;35.92
55468;BME280;41332;42.702;23.200;2023-07-13T09:28:58;94261.84;;;33.62;35.99
55468;BME280;41332;42.702;23.200;2023-07-13T09:31:38;94258.59;;;33.73;38.67
55468;BME280;41332;42.702;23.200;2023-07-13T09:34:09;94265.28;;;33.87;37.01
55468;BME280;41332;42.702;23.200;2023-07-13T09:36:35;94259.94;;;33.93;35.06
55468;BME280;41332;42.702;23.200;2023-07-13T09:42:01;94259.28;;;34.13;31.22
55468;BME280;41332;42.702;23.200;2023-07-13T09:44:36;94248.59;;;34.09;36.03
55468;BME280;41332;42.702;23.200;2023-07-13T09:47:02;94252.06;;;34.10;35.74
55468;BME280;41332;42.702;23.200;2023-07-13T09:49:34;94248.00;;;34.20;36.44
55468;BME280;41332;42.702;23.200;2023-07-13T09:52:11;94241.34;;;34.21;35.56
55468;BME280;41332;42.702;23.200;2023-07-13T09:54:37;94236.16;;;34.23;33.52
55468;BME280;41332;42.702;23.200;2023-07-13T09:57:08;94230.81;;;34.29;34.19
55468;BME280;41332;42.702;23.200;2023-07-13T09:59:49;94225.19;;;34.32;35.54
55468;BME280;41332;42.702;23.200;2023-07-13T10:05:11;94219.72;;;34.47;34.76
55468;BME280;41332;42.702;23.200;2023-07-13T10:07:43;94219.53;;;34.51;33.49
55468;BME280;41332;42.702;23.200;2023-07-13T10:10:17;94219.72;;;34.47;32.77
55468;BME280;41332;42.702;23.200;2023-07-13T10:12:45;94223.59;;;34.41;33.22
55468;BME280;41332;42.702;23.200;2023-07-13T10:15:15;94225.72;;;34.22;33.09
55468;BME280;41332;42.702;23.200;2023-07-13T10:17:41;94226.03;;;34.24;33.96
55468;BME280;41332;42.702;23.200;2023-07-13T10:20:12;94226.88;;;34.30;32.69
55468;BME280;41332;42.702;23.200;2023-07-13T10:22:58;94226.50;;;34.37;32.24
55468;BME280;41332;42.702;23.200;2023-07-13T10:25:27;94223.38;;;34.29;34.47
55468;BME280;41332;42.702;23.200;2023-07-13T10:27:58;94215.03;;;34.33;30.96
55468;BME280;41332;42.702;23.200;2023-07-13T10:30:31;94209.84;;;34.35;32.99
55468;BME280;41332;42.702;23.200;2023-07-13T10:33:00;94208.75;;;34.42;30.10
55468;BME280;41332;42.702;23.200;2023-07-13T10:35:29;94203.53;;;34.44;31.68
55468;BME280;41332;42.702;23.200;2023-07-13T10:38:09;94203.50;;;34.59;30.45
55468;BME280;41332;42.702;23.200;2023-07-13T10:40:41;94201.34;;;34.63;30.73
55468;BME280;41332;42.702;23.200;2023-07-13T10:43:22;94201.53;;;34.59;32.22
55468;BME280;41332;42.702;23.200;2023-07-13T10:45:50;94183.13;;;34.54;30.40
55468;BME280;41332;42.702;23.200;2023-07-13T10:48:17;94187.53;;;34.52;30.06
55468;BME280;41332;42.702;23.200;2023-07-13T10:50:45;94184.75;;;34.46;30.94
55468;BME280;41332;42.702;23.200;2023-07-13T10:53:29;94186.13;;;34.56;31.12
55468;BME280;41332;42.702;23.200;2023-07-13T10:55:57;94180.41;;;34.75;30.69
55468;BME280;41332;42.702;23.200;2023-07-13T10:58:39;94172.25;;;34.75;34.81
55468;BME280;41332;42.702;23.200;2023-07-13T11:01:15;94164.53;;;34.73;34.13
55468;BME280;41332;42.702;23.200;2023-07-13T11:04:02;94169.78;;;34.77;31.20
55468;BME280;41332;42.702;23.200;2023-07-13T11:09:37;94158.50;;;34.84;32.92
55468;BME280;41332;42.702;23.200;2023-07-13T11:15:03;94148.41;;;34.90;32.49
55468;BME280;41332;42.702;23.200;2023-07-13T11:17:50;94154.88;;;34.93;32.60
55468;BME280;41332;42.702;23.200;2023-07-13T11:20:31;94152.34;;;34.89;31.70
55468;BME280;41332;42.702;23.200;2023-07-13T11:25:39;94151.63;;;34.89;33.47
55468;BME280;41332;42.702;23.200;2023-07-13T11:30:58;94147.34;;;34.67;31.33
55468;BME280;41332;42.702;23.200;2023-07-13T11:33:28;94139.59;;;34.60;33.30
55468;BME280;41332;42.702;23.200;2023-07-13T11:36:05;94140.72;;;34.74;28.26
55468;BME280;41332;42.702;23.200;2023-07-13T11:38:41;94138.56;;;34.78;29.49
55468;BME280;41332;42.702;23.200;2023-07-13T11:41:30;94135.75;;;34.72;30.96
55468;BME280;41332;42.702;23.200;2023-07-13T11:44:11;94134.59;;;34.79;34.34
55468;BME280;41332;42.702;23.200;2023-07-13T11:46:37;94136.59;;;34.78;34.61
55468;BME280;41332;42.702;23.200;2023-07-13T11:49:05;94127.25;;;34.64;30.81
55468;BME280;41332;42.702;23.200;2023-07-13T11:51:33;94123.63;;;34.73;32.56
55468;BME280;41332;42.702;23.200;2023-07-13T11:54:30;94121.94;;;34.76;32.36
55468;BME280;41332;42.702;23.200;2023-07-13T11:56:59;94122.25;;;34.83;31.75
55468;BME280;41332;42.702;23.200;2023-07-13T11:59:26;94121.38;;;34.72;35.25
55468;BME280;41332;42.702;23.200;2023-07-13T12:01:54;94117.22;;;34.76;33.42
55468;BME280;41332;42.702;23.200;2023-07-13T12:04:26;94108.84;;;34.80;34.28
55468;BME280;41332;42.702;23.200;2023-07-13T12:09:33;94108.97;;;34.71;31.13
55468;BME280;41332;42.702;23.200;2023-07-13T12:11:59;94114.91;;;34.69;32.32
55468;BME280;41332;42.702;23.200;2023-07-13T12:14:27;94108.28;;;34.55;32.52
55468;BME280;41332;42.702;23.200;2023-07-13T12:16:53;94093.44;;;34.56;33.17
55468;BME280;41332;42.702;23.200;2023-07-13T12:19:25;94090.28;;;34.43;33.08
55468;BME280;41332;42.702;23.200;2023-07-13T12:21:58;94092.34;;;34.48;33.65
55468;BME280;41332;42.702;23.200;2023-07-13T12:24:25;94097.31;;;34.49;33.17
55468;BME280;41332;42.702;23.200;2023-07-13T12:27:02;94084.16;;;34.48;33.58
55468;BME280;41332;42.702;23.200;2023-07-13T12:29:32;94085.19;;;34.50;33.15
55468;BME280;41332;42.702;23.200;2023-07-13T12:31:59;94078.03;;;34.53;33.02
55468;BME280;41332;42.702;23.200;2023-07-13T12:34:25;94068.47;;;34.43;33.06
55468;BME280;41332;42.702;23.200;2023-07-13T12:36:54;94069.66;;;34.57;35.81
55468;BME280;41332;42.702;23.200;2023-07-13T12:39:21;94071.63;;;34.56;37.86
55468;BME280;41332;42.702;23.200;2023-07-13T12:41:50;94070.53;;;34.48;34.53
55468;BME280;41332;42.702;23.200;2023-07-13T12:44:18;94067.75;;;34.42;33.00
55468;BME280;41332;42.702;23.200;2023-07-13T12:46:56;94060.44;;;34.33;32.53
55468;BME280;41332;42.702;23.200;2023-07-13T12:49:30;94067.19;;;34.38;32.62
55468;BME280;41332;42.702;23.200;2023-07-13T12:51:59;94069.06;;;34.32;34.24
55468;BME280;41332;42.702;23.200;2023-07-13T12:54:26;94057.22;;;34.35;35.62
55468;BME280;41332;42.702;23.200;2023-07-13T12:56:53;94057.03;;;34.39;33.31
55468;BME280;41332;42.702;23.200;2023-07-13T12:59:22;94051.69;;;34.29;32.97
55468;BME280;41332;42.702;23.200;2023-07-13T13:01:52;94044.69;;;34.23;33.82
55468;BME280;41332;42.702;23.200;2023-07-13T13:04:18;94046.03;;;34.12;37.43
55468;BME280;41332;42.702;23.200;2023-07-13T13:06:47;94038.50;;;34.22;33.28
55468;BME280;41332;42.702;23.200;2023-07-13T13:09:15;94042.91;;;34.20;33.53
55468;BME280;41332;42.702;23.200;2023-07-13T13:11:40;94043.19;;;34.22;32.49
55468;BME280;41332;42.702;23.200;2023-07-13T13:14:06;94043.59;;;34.14;31.63
55468;BME280;41332;42.702;23.200;2023-07-13T13:16:47;94032.53;;;34.03;31.63
55468;BME280;41332;42.702;23.200;2023-07-13T13:19:19;94030.56;;;34.04;33.56
55468;BME280;41332;42.702;23.200;2023-07-13T13:21:47;94028.59;;;34.04;33.65
55468;BME280;41332;42.702;23.200;2023-07-13T13:24:14;94040.03;;;34.08;33.58
55468;BME280;41332;42.702;23.200;2023-07-13T13:26:40;94032.19;;;33.95;32.25
55468;BME280;41332;42.702;23.200;2023-07-13T13:29:15;94025.44;;;33.91;33.12
55468;BME280;41332;42.702;23.200;2023-07-13T13:31:42;94024.06;;;33.80;32.52